createdAt,value
2023-12-09T00:00:28.559Z,34.00
2023-12-09T00:03:01.289Z,32.30
2023-12-09T00:04:55.656Z,33.30
2023-12-09T00:06:50.887Z,31.30
2023-12-09T00:08:45.067Z,34.20
2023-12-09T00:10:39.130Z,33.50
2023-12-09T00:12:33.093Z,33.00
2023-12-09T00:14:28.266Z,33.50
2023-12-09T00:16:22.138Z,33.90
2023-12-09T00:18:18.595Z,31.50
2023-12-09T00:20:12.851Z,33.30
2023-12-09T00:22:07.019Z,33.70
2023-12-09T00:24:01.133Z,33.50
2023-12-09T00:25:55.283Z,32.20
2023-12-09T00:27:49.324Z,30.50
2023-12-09T00:29:45.909Z,35.70
2023-12-09T00:31:39.060Z,32.80
2023-12-09T00:33:32.210Z,34.30
2023-12-09T00:35:25.364Z,34.80
2023-12-09T00:37:18.517Z,30.80
2023-12-09T00:39:11.698Z,33.60
2023-12-09T00:41:05.879Z,34.40
2023-12-09T00:42:59.000Z,35.30
2023-12-09T00:44:52.095Z,35.10
2023-12-09T00:46:45.308Z,32.90
2023-12-09T00:48:38.452Z,32.80
2023-12-09T00:50:31.761Z,33.30
2023-12-09T00:52:25.613Z,32.90
2023-12-09T00:54:19.854Z,33.40
2023-12-09T00:56:14.351Z,33.00
2023-12-09T00:58:07.722Z,33.40
2023-12-09T01:00:00.966Z,32.40
2023-12-09T01:01:54.264Z,32.90
2023-12-09T01:03:47.495Z,34.80
2023-12-09T01:05:40.789Z,35.70
2023-12-09T01:07:34.294Z,34.20
2023-12-09T01:09:27.439Z,33.30
2023-12-09T01:11:21.467Z,32.40
2023-12-09T01:13:15.190Z,34.60
2023-12-09T01:15:08.928Z,31.30
2023-12-09T01:17:02.723Z,33.80
2023-12-09T01:18:55.850Z,33.80
2023-12-09T01:20:49.045Z,35.80
2023-12-09T01:22:42.080Z,29.50
2023-12-09T01:24:35.170Z,33.40
2023-12-09T01:26:28.277Z,33.00
2023-12-09T01:28:21.447Z,33.10
2023-12-09T01:30:14.892Z,34.40
2023-12-09T01:32:08.267Z,33.10
2023-12-09T01:34:02.456Z,35.00
2023-12-09T01:35:56.442Z,33.90
2023-12-09T01:37:49.551Z,35.80
2023-12-09T01:39:42.705Z,32.80
2023-12-09T01:41:35.860Z,32.80
2023-12-09T01:43:29.013Z,35.90
2023-12-09T01:45:22.188Z,33.90
2023-12-09T01:47:15.842Z,32.70
2023-12-09T01:49:09.329Z,33.50
2023-12-09T01:51:02.813Z,33.60
2023-12-09T01:52:56.012Z,36.20
2023-12-09T01:54:49.689Z,35.60
2023-12-09T01:56:42.823Z,34.50
2023-12-09T01:58:39.605Z,32.70
2023-12-09T02:00:33.287Z,30.10
2023-12-09T02:02:26.966Z,35.30
2023-12-09T02:04:20.902Z,35.10
2023-12-09T02:06:14.152Z,34.70
2023-12-09T02:08:07.271Z,34.90
2023-12-09T02:10:00.354Z,35.60
2023-12-09T02:12:12.370Z,35.20
2023-12-09T02:14:14.276Z,34.40
2023-12-09T02:16:15.735Z,36.50
2023-12-09T02:18:09.767Z,34.30
2023-12-09T02:20:04.797Z,33.70
2023-12-09T02:22:05.349Z,33.80
2023-12-09T02:23:58.497Z,35.40
2023-12-09T02:25:59.716Z,34.00
2023-12-09T02:27:58.860Z,35.00
2023-12-09T02:30:00.750Z,34.20
2023-12-09T02:32:04.398Z,33.90
2023-12-09T02:33:59.575Z,33.30
2023-12-09T02:35:56.625Z,33.70
2023-12-09T02:37:51.092Z,33.70
2023-12-09T02:39:44.244Z,35.30
2023-12-09T02:41:37.912Z,34.50
2023-12-09T02:43:31.789Z,36.50
2023-12-09T02:45:25.002Z,35.30
2023-12-09T02:47:18.310Z,34.80
2023-12-09T02:49:12.492Z,33.60
2023-12-09T02:51:06.863Z,36.90
2023-12-09T02:52:59.905Z,36.40
2023-12-09T02:54:53.175Z,33.90
2023-12-09T02:56:46.219Z,37.30
2023-12-09T02:58:39.260Z,36.50
2023-12-09T03:00:32.256Z,36.60
2023-12-09T03:02:25.989Z,37.60
2023-12-09T03:04:27.058Z,31.80
2023-12-09T03:06:20.183Z,35.80
2023-12-09T03:08:13.317Z,36.50
2023-12-09T03:10:07.290Z,38.40
2023-12-09T03:12:00.489Z,37.00
2023-12-09T03:13:53.708Z,35.50
2023-12-09T03:15:46.854Z,37.30
2023-12-09T03:17:40.281Z,37.60
2023-12-09T03:19:33.878Z,38.60
2023-12-09T03:21:27.236Z,35.40
2023-12-09T03:23:20.386Z,34.10
2023-12-09T03:25:13.433Z,38.90
2023-12-09T03:27:06.522Z,39.40
2023-12-09T03:28:59.738Z,38.30
2023-12-09T03:30:52.996Z,40.00
2023-12-09T03:32:46.075Z,38.50
2023-12-09T03:34:39.279Z,39.50
2023-12-09T03:36:32.520Z,37.30
2023-12-09T03:38:25.713Z,37.80
2023-12-09T03:40:18.775Z,38.60
2023-12-09T03:42:11.963Z,39.40
2023-12-09T03:44:05.374Z,42.80
2023-12-09T03:45:59.653Z,39.90
2023-12-09T03:47:52.936Z,38.70
2023-12-09T03:49:46.224Z,39.70
2023-12-09T03:51:39.432Z,40.40
2023-12-09T03:53:32.575Z,38.10
2023-12-09T03:55:25.622Z,39.10
2023-12-09T03:57:19.204Z,36.30
2023-12-09T03:59:13.088Z,36.00
2023-12-09T04:01:06.835Z,40.90
2023-12-09T04:03:00.319Z,39.40
2023-12-09T04:04:53.638Z,35.70
2023-12-09T04:06:46.704Z,40.50
2023-12-09T04:08:39.843Z,39.10
2023-12-09T04:10:32.996Z,39.20
2023-12-09T04:12:26.335Z,38.70
2023-12-09T04:14:19.624Z,41.10
2023-12-09T04:16:12.765Z,36.70
2023-12-09T04:18:07.092Z,39.40
2023-12-09T04:20:00.653Z,41.30
2023-12-09T04:21:53.966Z,37.70
2023-12-09T04:23:47.125Z,39.50
2023-12-09T04:25:40.270Z,40.50
2023-12-09T04:27:34.385Z,39.80
2023-12-09T04:29:27.563Z,39.10
2023-12-09T04:31:20.755Z,39.90
2023-12-09T04:33:13.926Z,41.10
2023-12-09T04:35:07.889Z,41.20
2023-12-09T04:37:01.749Z,38.90
2023-12-09T04:38:54.823Z,41.60
2023-12-09T04:40:48.162Z,39.40
2023-12-09T04:42:41.602Z,39.80
2023-12-09T04:44:34.769Z,39.20
2023-12-09T04:46:28.678Z,42.20
2023-12-09T04:48:21.913Z,39.50
2023-12-09T04:50:15.667Z,38.40
2023-12-09T04:52:08.812Z,39.90
2023-12-09T04:54:01.982Z,42.80
2023-12-09T04:55:55.063Z,38.30
2023-12-09T04:57:48.957Z,41.40
2023-12-09T04:59:42.042Z,41.00
2023-12-09T05:01:35.193Z,43.50
2023-12-09T05:03:28.289Z,41.60
2023-12-09T05:05:21.621Z,39.40
2023-12-09T05:07:15.878Z,38.20
2023-12-09T05:09:10.092Z,40.90
2023-12-09T05:11:03.316Z,41.10
2023-12-09T05:12:56.372Z,37.30
2023-12-09T05:14:50.056Z,41.90
2023-12-09T05:16:43.139Z,38.30
2023-12-09T05:18:36.648Z,40.60
2023-12-09T05:20:31.400Z,38.30
2023-12-09T05:22:25.169Z,37.00
2023-12-09T05:24:19.703Z,39.70
2023-12-09T05:26:23.300Z,40.90
2023-12-09T05:28:16.641Z,40.30
2023-12-09T05:30:10.563Z,37.50
2023-12-09T05:32:04.379Z,38.60
2023-12-09T05:33:57.616Z,39.30
2023-12-09T05:35:50.891Z,36.10
2023-12-09T05:37:43.983Z,39.90
2023-12-09T05:39:37.375Z,32.00
2023-12-09T05:41:30.555Z,38.80
2023-12-09T05:43:23.705Z,37.10
2023-12-09T05:45:16.839Z,40.60
2023-12-09T05:47:10.015Z,39.90
2023-12-09T05:49:03.985Z,35.50
2023-12-09T05:50:57.159Z,39.10
2023-12-09T05:52:50.296Z,37.50
2023-12-09T05:54:43.554Z,40.30
2023-12-09T05:56:36.801Z,38.80
2023-12-09T05:58:29.861Z,39.30
2023-12-09T06:00:23.060Z,38.10
2023-12-09T06:02:16.055Z,40.20
2023-12-09T06:04:09.459Z,38.70
2023-12-09T06:06:03.003Z,37.10
2023-12-09T06:07:56.243Z,39.00
2023-12-09T06:09:49.460Z,39.50
2023-12-09T06:11:42.751Z,39.80
2023-12-09T06:13:35.998Z,38.70
2023-12-09T06:15:29.068Z,39.40
2023-12-09T06:17:22.371Z,41.40
2023-12-09T06:19:15.767Z,41.30
2023-12-09T06:21:08.933Z,41.70
2023-12-09T06:23:02.074Z,40.00
2023-12-09T06:24:55.440Z,41.30
2023-12-09T06:26:48.647Z,40.70
2023-12-09T06:28:41.739Z,41.10
2023-12-09T06:30:34.950Z,40.40
2023-12-09T06:32:28.446Z,41.10
2023-12-09T06:34:21.979Z,40.90
2023-12-09T06:36:15.379Z,41.80
2023-12-09T06:38:09.576Z,48.30
2023-12-09T06:40:02.658Z,42.50
2023-12-09T06:41:55.802Z,45.00
2023-12-09T06:43:48.801Z,42.00
2023-12-09T06:45:42.069Z,40.10
2023-12-09T06:47:36.494Z,43.00
2023-12-09T06:49:29.859Z,42.50
2023-12-09T06:51:23.110Z,42.00
2023-12-09T06:53:16.514Z,43.10
2023-12-09T06:55:09.663Z,42.70
2023-12-09T06:57:02.836Z,40.50
2023-12-09T06:58:55.922Z,41.40
2023-12-09T07:00:49.251Z,39.20
2023-12-09T07:02:52.946Z,41.50
2023-12-09T07:04:52.328Z,39.40
2023-12-09T07:06:45.475Z,38.50
2023-12-09T07:08:38.532Z,41.00
2023-12-09T07:10:31.587Z,39.80
2023-12-09T07:12:24.852Z,39.80
2023-12-09T07:14:19.121Z,41.10
2023-12-09T07:16:13.692Z,40.40
2023-12-09T07:18:06.926Z,41.70
2023-12-09T07:20:01.030Z,40.40
2023-12-09T07:21:54.190Z,43.80
2023-12-09T07:23:47.245Z,40.50
2023-12-09T07:25:40.293Z,39.40
2023-12-09T07:27:33.662Z,40.30
2023-12-09T07:29:28.565Z,37.90
2023-12-09T07:31:22.718Z,41.80
2023-12-09T07:33:16.180Z,42.50
2023-12-09T07:35:10.314Z,42.90
2023-12-09T07:37:03.612Z,42.20
2023-12-09T07:38:56.783Z,42.70
2023-12-09T07:40:49.911Z,43.10
2023-12-09T07:42:42.974Z,42.80
2023-12-09T07:44:36.119Z,40.30
2023-12-09T07:46:29.128Z,45.30
2023-12-09T07:48:22.376Z,42.10
2023-12-09T07:50:15.691Z,41.80
2023-12-09T07:52:08.796Z,37.50
2023-12-09T07:54:01.798Z,42.40
2023-12-09T07:55:54.884Z,41.50
2023-12-09T07:57:47.978Z,43.10
2023-12-09T07:59:41.343Z,39.50
2023-12-09T08:01:35.360Z,38.70
2023-12-09T08:03:30.559Z,38.40
2023-12-09T08:05:25.238Z,39.60
2023-12-09T08:07:18.354Z,40.00
2023-12-09T08:09:11.759Z,39.10
2023-12-09T08:11:05.484Z,42.00
2023-12-09T08:12:58.736Z,40.90
2023-12-09T08:14:51.795Z,41.10
2023-12-09T08:16:44.887Z,40.10
2023-12-09T08:18:39.225Z,39.80
2023-12-09T08:20:32.519Z,41.80
2023-12-09T08:22:25.789Z,42.50
2023-12-09T08:24:19.117Z,41.30
2023-12-09T08:26:17.942Z,44.00
2023-12-09T08:28:11.957Z,37.40
2023-12-09T08:30:11.864Z,39.10
2023-12-09T08:32:05.935Z,38.40
2023-12-09T08:33:59.124Z,39.80
2023-12-09T08:35:52.446Z,39.70
2023-12-09T08:37:45.487Z,39.60
2023-12-09T08:39:41.110Z,40.20
2023-12-09T08:41:34.256Z,40.30
2023-12-09T08:43:27.313Z,38.80
2023-12-09T08:45:20.623Z,39.20
2023-12-09T08:47:13.823Z,38.10
2023-12-09T08:49:07.306Z,39.50
2023-12-09T08:51:00.784Z,38.10
2023-12-09T08:52:54.645Z,38.20
2023-12-09T08:54:48.523Z,39.50
2023-12-09T08:56:42.075Z,40.20
2023-12-09T08:58:36.013Z,41.70
2023-12-09T09:00:29.199Z,39.60
2023-12-09T09:02:22.928Z,45.80
2023-12-09T09:04:16.086Z,47.30
2023-12-09T09:06:09.300Z,49.50
2023-12-09T09:08:02.391Z,50.30
2023-12-09T09:09:55.441Z,52.60
2023-12-09T09:11:48.595Z,61.50
2023-12-09T09:13:41.748Z,63.90
2023-12-09T09:15:35.047Z,81.10
2023-12-09T09:17:28.374Z,61.00
2023-12-09T09:19:22.352Z,66.80
2023-12-09T09:21:16.670Z,69.50
2023-12-09T09:23:11.152Z,69.20
2023-12-09T09:25:04.768Z,66.30
2023-12-09T09:26:57.849Z,43.50
2023-12-09T09:28:51.008Z,53.70
2023-12-09T09:30:44.447Z,50.70
2023-12-09T09:32:37.714Z,51.50
2023-12-09T09:34:30.975Z,57.80
2023-12-09T09:36:24.531Z,112.50
2023-12-09T09:38:18.379Z,84.60
2023-12-09T09:40:13.276Z,74.10
2023-12-09T09:42:17.267Z,86.70
2023-12-09T09:44:15.340Z,71.60
2023-12-09T09:46:08.746Z,69.80
2023-12-09T09:48:07.292Z,63.50
2023-12-09T09:50:02.488Z,55.50
2023-12-09T09:51:58.501Z,57.80
2023-12-09T09:54:01.451Z,61.10
2023-12-09T09:55:55.620Z,53.20
2023-12-09T09:57:50.152Z,53.60
2023-12-09T09:59:43.499Z,52.30
2023-12-09T10:01:38.919Z,50.30
2023-12-09T10:03:32.210Z,79.80
2023-12-09T10:05:25.458Z,77.40
2023-12-09T10:07:19.938Z,58.70
2023-12-09T10:09:13.753Z,63.70
2023-12-09T10:11:06.876Z,68.30
2023-12-09T10:13:00.186Z,57.80
2023-12-09T10:14:53.358Z,50.10
2023-12-09T10:16:46.894Z,45.80
2023-12-09T10:18:45.988Z,49.20
2023-12-09T10:20:39.187Z,215.90
2023-12-09T10:22:32.294Z,340.80
2023-12-09T10:24:25.371Z,185.60
2023-12-09T10:26:18.909Z,194.90
2023-12-09T10:28:12.063Z,294.10
2023-12-09T10:30:07.070Z,194.70
2023-12-09T10:32:02.652Z,384.80
2023-12-09T10:33:56.897Z,179.40
2023-12-09T10:35:50.815Z,241.50
2023-12-09T10:37:44.479Z,119.10
2023-12-09T10:39:37.803Z,90.10
2023-12-09T10:41:30.992Z,72.30
2023-12-09T10:43:24.879Z,58.90
2023-12-09T10:45:18.048Z,59.30
2023-12-09T10:47:11.171Z,59.10
2023-12-09T10:49:04.368Z,57.50
2023-12-09T10:50:57.800Z,57.50
2023-12-09T10:52:50.930Z,55.80
2023-12-09T10:54:44.038Z,59.30
2023-12-09T10:56:37.953Z,64.00
2023-12-09T10:58:33.327Z,60.80
2023-12-09T11:00:27.706Z,59.80
2023-12-09T11:02:22.462Z,55.70
2023-12-09T11:04:16.429Z,60.20
2023-12-09T11:06:10.661Z,57.70
2023-12-09T11:08:04.767Z,75.70
2023-12-09T11:09:57.915Z,84.30
2023-12-09T11:11:50.957Z,68.60
2023-12-09T11:13:47.490Z,64.50
2023-12-09T11:15:41.115Z,61.20
2023-12-09T11:17:39.109Z,67.70
2023-12-09T11:19:33.410Z,68.80
2023-12-09T11:21:30.622Z,69.50
2023-12-09T11:23:23.806Z,82.40
2023-12-09T11:25:20.065Z,73.30
2023-12-09T11:27:39.554Z,79.10
2023-12-09T11:29:32.864Z,60.40
2023-12-09T11:31:36.766Z,46.60
2023-12-09T11:33:30.197Z,53.60
2023-12-09T11:35:26.499Z,50.10
2023-12-09T11:37:20.115Z,58.50
2023-12-09T11:39:21.833Z,51.00
2023-12-09T11:41:16.354Z,57.90
2023-12-09T11:43:10.161Z,57.40
2023-12-09T11:45:05.241Z,122.20
2023-12-09T11:46:58.684Z,182.10
2023-12-09T11:48:52.573Z,147.80
2023-12-09T11:50:45.806Z,209.80
2023-12-09T11:52:38.958Z,196.00
2023-12-09T11:54:32.140Z,148.10
2023-12-09T11:56:26.211Z,117.60
2023-12-09T11:58:19.437Z,87.70
2023-12-09T12:00:13.084Z,124.50
2023-12-09T12:02:06.510Z,321.90
2023-12-09T12:04:00.552Z,209.80
2023-12-09T12:05:53.845Z,182.00
2023-12-09T12:07:47.411Z,246.50
2023-12-09T12:09:40.874Z,132.90
2023-12-09T12:11:35.037Z,90.00
2023-12-09T12:13:29.659Z,76.10
2023-12-09T12:15:26.265Z,103.30
2023-12-09T12:17:19.489Z,69.80
2023-12-09T12:19:12.694Z,62.00
2023-12-09T12:21:11.479Z,89.50
2023-12-09T12:23:08.054Z,56.10
2023-12-09T12:25:05.599Z,57.20
2023-12-09T12:26:58.703Z,47.90
2023-12-09T12:28:53.360Z,72.20
2023-12-09T12:30:46.551Z,167.30
2023-12-09T12:32:39.802Z,282.70
2023-12-09T12:34:33.310Z,155.60
2023-12-09T12:36:26.618Z,135.10
2023-12-09T12:38:22.083Z,76.00
2023-12-09T12:40:15.536Z,76.80
2023-12-09T12:42:09.958Z,69.70
2023-12-09T12:44:04.576Z,72.30
2023-12-09T12:46:00.224Z,108.70
2023-12-09T12:47:54.399Z,64.90
2023-12-09T12:49:47.791Z,52.80
2023-12-09T12:51:41.152Z,44.70
2023-12-09T12:53:35.081Z,50.50
2023-12-09T12:55:28.261Z,43.20
2023-12-09T12:57:24.741Z,42.20
2023-12-09T12:59:18.441Z,38.70
2023-12-09T13:01:11.974Z,38.20
2023-12-09T13:03:08.665Z,38.40
2023-12-09T13:05:02.138Z,38.30
2023-12-09T13:06:55.286Z,36.80
2023-12-09T13:08:48.440Z,37.50
2023-12-09T13:10:41.861Z,37.90
2023-12-09T13:12:35.519Z,34.60
2023-12-09T13:14:28.718Z,36.70
2023-12-09T13:16:22.336Z,39.70
2023-12-09T13:18:16.611Z,37.30
2023-12-09T13:20:11.913Z,37.50
2023-12-09T13:22:06.915Z,36.90
2023-12-09T13:24:00.319Z,36.50
2023-12-09T13:25:54.041Z,38.50
2023-12-09T13:27:47.717Z,39.00
2023-12-09T13:29:41.373Z,35.80
2023-12-09T13:31:34.566Z,38.70
2023-12-09T13:33:27.772Z,35.00
2023-12-09T13:35:21.054Z,35.30
2023-12-09T13:37:14.816Z,31.70
2023-12-09T13:39:13.118Z,33.70
2023-12-09T13:43:00.097Z,31.80
2023-12-09T13:44:53.256Z,33.20
2023-12-09T13:46:46.712Z,34.90
2023-12-09T13:48:39.936Z,36.30
2023-12-09T13:50:33.614Z,35.20
2023-12-09T13:52:33.578Z,35.80
2023-12-09T13:54:27.139Z,34.50
2023-12-09T13:56:21.565Z,34.50
2023-12-09T13:58:14.953Z,34.10
2023-12-09T14:00:09.928Z,35.10
2023-12-09T14:02:04.370Z,34.00
2023-12-09T14:03:58.428Z,35.30
2023-12-09T14:05:53.168Z,37.30
2023-12-09T14:07:47.373Z,36.30
2023-12-09T14:09:40.992Z,36.50
2023-12-09T14:11:34.705Z,38.60
2023-12-09T14:13:29.436Z,39.50
2023-12-09T14:15:25.730Z,38.30
2023-12-09T14:17:20.299Z,38.80
2023-12-09T14:19:14.009Z,37.60
2023-12-09T14:21:07.855Z,38.30
2023-12-09T14:23:31.553Z,36.40
2023-12-09T14:25:26.943Z,37.50
2023-12-09T14:27:20.410Z,36.40
2023-12-09T14:29:14.148Z,38.50
2023-12-09T14:31:07.725Z,38.50
2023-12-09T14:33:01.465Z,39.90
2023-12-09T14:34:55.690Z,42.70
2023-12-09T14:36:49.486Z,44.10
2023-12-09T14:38:43.702Z,44.20
2023-12-09T14:40:36.943Z,42.10
2023-12-09T14:42:31.736Z,42.10
2023-12-09T14:44:25.526Z,42.50
2023-12-09T14:46:18.874Z,41.30
2023-12-09T14:48:18.309Z,40.80
2023-12-09T14:50:14.378Z,41.90
2023-12-09T14:52:08.255Z,42.70
2023-12-09T14:54:02.242Z,42.90
2023-12-09T14:55:55.972Z,41.40
2023-12-09T14:57:49.757Z,45.70
2023-12-09T14:59:43.317Z,46.70
2023-12-09T15:01:36.880Z,116.10
2023-12-09T15:03:30.380Z,57.60
2023-12-09T15:05:23.804Z,53.90
2023-12-09T15:07:17.523Z,53.30
2023-12-09T15:09:11.530Z,48.40
2023-12-09T15:11:05.312Z,48.30
2023-12-09T15:12:58.380Z,55.30
2023-12-09T15:14:52.234Z,55.70
2023-12-09T15:16:45.829Z,47.10
2023-12-09T15:18:42.670Z,48.30
2023-12-09T15:20:35.882Z,46.50
2023-12-09T15:22:29.286Z,47.50
2023-12-09T15:24:23.718Z,48.60
2023-12-09T15:26:20.107Z,45.80
2023-12-09T15:28:13.414Z,46.90
2023-12-09T15:30:08.423Z,46.20
2023-12-09T15:32:01.664Z,43.70
2023-12-09T15:33:55.108Z,46.90
2023-12-09T15:35:48.632Z,45.30
2023-12-09T15:37:43.733Z,45.70
2023-12-09T15:39:40.702Z,43.50
2023-12-09T15:41:34.596Z,44.20
2023-12-09T15:43:27.696Z,42.40
2023-12-09T15:45:20.857Z,42.90
2023-12-09T15:47:14.675Z,41.80
2023-12-09T15:49:08.788Z,38.60
2023-12-09T15:51:03.288Z,39.70
2023-12-09T15:52:56.928Z,39.90
2023-12-09T15:54:50.043Z,39.90
2023-12-09T15:56:43.406Z,40.60
2023-12-09T15:58:36.962Z,38.80
2023-12-09T16:00:30.651Z,39.50
2023-12-09T16:02:24.069Z,39.30
2023-12-09T16:04:17.360Z,41.10
2023-12-09T16:06:10.631Z,39.20
2023-12-09T16:08:04.168Z,39.00
2023-12-09T16:09:58.423Z,39.40
2023-12-09T16:11:51.810Z,39.50
2023-12-09T16:13:45.055Z,36.00
2023-12-09T16:15:38.340Z,38.60
2023-12-09T16:17:31.936Z,40.50
2023-12-09T16:19:25.207Z,40.90
2023-12-09T16:21:23.408Z,41.80
2023-12-09T16:23:17.475Z,41.80
2023-12-09T16:25:10.737Z,39.40
2023-12-09T16:27:04.643Z,37.80
2023-12-09T16:28:57.859Z,39.10
2023-12-09T16:30:51.191Z,39.70
2023-12-09T16:32:45.683Z,37.90
2023-12-09T16:34:45.073Z,39.20
2023-12-09T16:38:35.226Z,35.20
2023-12-09T16:40:35.245Z,37.40
2023-12-09T16:45:25.230Z,34.30
2023-12-09T16:47:18.681Z,36.80
2023-12-09T16:49:11.900Z,35.10
2023-12-09T16:51:05.223Z,35.90
2023-12-09T16:52:58.560Z,36.60
2023-12-09T16:54:51.763Z,34.90
2023-12-09T16:56:45.154Z,37.10
2023-12-09T16:58:38.724Z,34.50
2023-12-09T17:00:31.997Z,37.10
2023-12-09T17:02:27.678Z,35.50
2023-12-09T17:04:21.175Z,37.70
2023-12-09T17:06:14.910Z,38.70
2023-12-09T17:08:08.123Z,37.80
2023-12-09T17:10:01.328Z,37.70
2023-12-09T17:11:54.734Z,38.40
2023-12-09T17:13:47.944Z,38.40
2023-12-09T17:15:41.105Z,38.00
2023-12-09T17:17:34.636Z,36.30
2023-12-09T17:19:28.205Z,38.30
2023-12-09T17:21:21.831Z,37.80
2023-12-09T17:23:17.372Z,38.80
2023-12-09T17:25:13.033Z,36.90
2023-12-09T17:27:11.941Z,38.00
2023-12-09T17:29:07.953Z,38.80
2023-12-09T17:31:02.505Z,38.10
2023-12-09T17:32:55.980Z,37.20
2023-12-09T17:34:49.340Z,38.00
2023-12-09T17:36:42.760Z,37.00
2023-12-09T17:38:35.985Z,33.90
2023-12-09T17:40:30.106Z,35.00
2023-12-09T17:42:42.823Z,39.70
2023-12-09T17:44:59.183Z,38.00
2023-12-09T17:46:54.052Z,35.90
2023-12-09T17:48:49.339Z,37.50
2023-12-09T17:50:42.560Z,38.60
2023-12-09T17:52:37.643Z,36.00
2023-12-09T17:54:31.805Z,36.00
2023-12-09T17:56:25.042Z,33.50
2023-12-09T17:58:18.139Z,36.30
2023-12-09T18:00:14.451Z,35.10
2023-12-09T18:02:09.167Z,37.50
2023-12-09T18:04:02.407Z,37.20
2023-12-09T18:05:56.075Z,33.10
2023-12-09T18:07:49.342Z,35.30
2023-12-09T18:09:45.322Z,36.70
2023-12-09T18:11:38.640Z,37.40
2023-12-09T18:13:31.718Z,37.30
2023-12-09T18:15:24.938Z,36.50
2023-12-09T18:17:18.734Z,32.60
2023-12-09T18:19:11.942Z,37.40
2023-12-09T18:21:05.352Z,36.90
2023-12-09T18:23:04.270Z,35.10
2023-12-09T18:25:03.765Z,33.50
2023-12-09T18:26:59.935Z,35.10
2023-12-09T18:28:57.410Z,34.50
2023-12-09T18:30:53.723Z,36.40
2023-12-09T18:32:50.588Z,34.70
2023-12-09T18:34:46.008Z,34.00
2023-12-09T18:36:42.074Z,37.10
2023-12-09T18:38:36.735Z,36.30
2023-12-09T18:40:29.898Z,34.90
2023-12-09T18:42:23.070Z,40.80
2023-12-09T18:44:21.670Z,41.70
2023-12-09T18:46:18.596Z,42.40
2023-12-09T18:50:10.976Z,43.40
2023-12-09T18:52:06.755Z,46.60
2023-12-09T18:54:02.878Z,47.10
2023-12-09T18:55:58.062Z,46.30
2023-12-09T18:57:53.573Z,47.60
2023-12-09T18:59:48.823Z,48.30
2023-12-09T19:01:43.420Z,50.10
2023-12-09T19:03:39.890Z,47.10
2023-12-09T19:05:35.569Z,58.70
2023-12-09T19:07:30.600Z,50.40
2023-12-09T19:09:27.216Z,53.00
2023-12-09T19:11:22.535Z,54.80
2023-12-09T19:13:17.686Z,53.10
2023-12-09T19:15:13.334Z,50.00
2023-12-09T19:17:08.700Z,50.60
2023-12-09T19:19:04.019Z,50.30
2023-12-09T19:20:58.957Z,46.80
2023-12-09T19:22:53.802Z,47.60
2023-12-09T19:24:49.526Z,49.60
2023-12-09T19:26:45.799Z,47.40
2023-12-09T19:28:41.350Z,47.50
2023-12-09T19:30:36.313Z,50.20
2023-12-09T19:32:31.265Z,51.90
2023-12-09T19:34:26.657Z,51.80
2023-12-09T19:36:21.738Z,48.90
2023-12-09T19:38:17.304Z,50.40
2023-12-09T19:40:12.979Z,48.70
2023-12-09T19:42:08.101Z,49.40
2023-12-09T19:44:01.264Z,51.10
2023-12-09T19:45:54.528Z,40.20
2023-12-09T19:47:47.679Z,51.60
2023-12-09T19:49:42.514Z,51.50
2023-12-09T19:51:35.744Z,49.50
2023-12-09T19:53:29.360Z,50.70
2023-12-09T19:55:22.595Z,49.60
2023-12-09T19:57:17.239Z,48.30
2023-12-09T19:59:10.300Z,49.80
2023-12-09T20:01:03.634Z,50.20
2023-12-09T20:02:56.956Z,50.80
2023-12-09T20:04:50.331Z,53.20
2023-12-09T20:06:44.946Z,50.50
2023-12-09T20:08:39.314Z,50.20
2023-12-09T20:10:32.906Z,52.10
2023-12-09T20:12:26.970Z,47.90
2023-12-09T20:14:20.206Z,46.60
2023-12-09T20:16:13.668Z,50.80
2023-12-09T20:18:07.322Z,47.30
2023-12-09T20:20:00.940Z,48.00
2023-12-09T20:21:54.276Z,49.00
2023-12-09T20:23:48.070Z,48.10
2023-12-09T20:25:42.414Z,44.10
2023-12-09T20:27:36.857Z,45.50
2023-12-09T20:29:30.452Z,43.00
2023-12-09T20:31:24.477Z,44.00
2023-12-09T20:33:18.838Z,42.60
2023-12-09T20:35:12.737Z,43.00
2023-12-09T20:37:06.960Z,42.00
2023-12-09T20:39:01.030Z,39.80
2023-12-09T20:40:54.189Z,41.70
2023-12-09T20:42:48.327Z,40.10
2023-12-09T20:44:42.785Z,40.20
2023-12-09T20:46:36.115Z,38.50
2023-12-09T20:48:29.758Z,37.90
2023-12-09T20:50:24.381Z,38.10
2023-12-09T20:52:18.220Z,39.00
2023-12-09T20:54:12.787Z,38.50
2023-12-09T20:56:09.386Z,37.80
2023-12-09T20:58:04.789Z,39.10
2023-12-09T20:59:58.853Z,42.20
2023-12-09T21:01:56.319Z,42.70
2023-12-09T21:03:51.727Z,42.00
2023-12-09T21:05:46.108Z,39.40
2023-12-09T21:07:40.691Z,39.30
2023-12-09T21:09:34.927Z,40.80
2023-12-09T21:11:29.956Z,38.50
2023-12-09T21:13:25.069Z,40.00
2023-12-09T21:15:21.373Z,38.90
2023-12-09T21:17:15.568Z,34.30
2023-12-09T21:19:11.356Z,35.30
2023-12-09T21:21:06.034Z,37.30
2023-12-09T21:23:01.126Z,39.40
2023-12-09T21:24:56.109Z,37.20
2023-12-09T21:26:49.778Z,35.40
2023-12-09T21:28:43.564Z,36.30
2023-12-09T21:30:37.738Z,38.00
2023-12-09T21:32:31.860Z,37.10
2023-12-09T21:34:25.930Z,34.90
2023-12-09T21:36:19.866Z,37.80
2023-12-09T21:38:14.497Z,38.40
2023-12-09T21:40:09.141Z,40.30
2023-12-09T21:42:02.482Z,39.50
2023-12-09T21:43:55.663Z,39.10
2023-12-09T21:45:50.679Z,38.60
2023-12-09T21:47:44.398Z,37.90
2023-12-09T21:49:44.557Z,39.40
2023-12-09T21:51:42.787Z,37.60
2023-12-09T21:53:37.885Z,38.40
2023-12-09T21:55:32.499Z,34.10
2023-12-09T21:57:25.763Z,37.30
2023-12-09T21:59:19.454Z,34.20
2023-12-09T22:01:14.292Z,35.40
2023-12-09T22:03:08.454Z,34.80
2023-12-09T22:05:02.540Z,36.10
2023-12-09T22:06:56.665Z,36.70
2023-12-09T22:08:50.518Z,33.90
2023-12-09T22:10:44.608Z,33.50
2023-12-09T22:12:41.162Z,35.10
2023-12-09T22:14:35.375Z,31.00
2023-12-09T22:16:28.436Z,31.30
2023-12-09T22:18:21.842Z,32.00
2023-12-09T22:20:15.147Z,33.80
2023-12-09T22:22:08.813Z,31.90
2023-12-09T22:24:03.434Z,30.70
2023-12-09T22:25:58.453Z,32.10
2023-12-09T22:27:52.390Z,31.20
2023-12-09T22:29:46.073Z,34.60
2023-12-09T22:31:46.347Z,31.40
2023-12-09T22:33:41.783Z,32.60
2023-12-09T22:35:38.487Z,32.00
2023-12-09T22:37:33.304Z,32.90
2023-12-09T22:39:28.274Z,33.30
2023-12-09T22:41:22.819Z,30.50
2023-12-09T22:43:16.070Z,32.30
2023-12-09T22:45:10.014Z,30.00
2023-12-09T22:47:03.475Z,32.00
2023-12-09T22:49:00.425Z,31.30
2023-12-09T22:51:00.229Z,28.70
2023-12-09T22:52:54.737Z,32.80
2023-12-09T22:54:47.885Z,31.40
2023-12-09T22:56:41.297Z,34.70
2023-12-09T22:58:35.485Z,31.20
2023-12-09T23:00:29.343Z,31.90
2023-12-09T23:02:23.732Z,32.70
2023-12-09T23:04:17.431Z,34.40
2023-12-09T23:06:12.242Z,33.20
2023-12-09T23:08:06.154Z,33.20
2023-12-09T23:09:59.798Z,33.80
2023-12-09T23:11:53.382Z,30.90
2023-12-09T23:13:47.283Z,32.00
2023-12-09T23:15:41.679Z,35.10
2023-12-09T23:17:36.276Z,30.50
2023-12-09T23:19:30.584Z,28.40
2023-12-09T23:21:23.891Z,29.10
2023-12-09T23:23:23.859Z,33.00
2023-12-09T23:25:17.535Z,32.30
2023-12-09T23:27:10.948Z,31.60
2023-12-09T23:29:05.446Z,29.20
2023-12-09T23:30:58.684Z,30.30
2023-12-09T23:32:52.552Z,32.80
2023-12-09T23:34:46.143Z,29.90
2023-12-09T23:36:39.850Z,30.50
2023-12-09T23:38:33.001Z,33.00
2023-12-09T23:40:26.139Z,32.00
2023-12-09T23:42:19.375Z,30.20
2023-12-09T23:44:12.489Z,30.80
2023-12-09T23:46:05.719Z,30.10
2023-12-09T23:47:59.572Z,27.80
2023-12-09T23:49:52.643Z,30.10
2023-12-09T23:51:45.787Z,30.80
2023-12-09T23:53:39.075Z,28.90
2023-12-09T23:55:32.230Z,28.10
2023-12-09T23:57:27.034Z,29.30
2023-12-09T23:59:22.197Z,32.50
